Portada
METAR-TAF:

METAR-TAF

Aeroports :

Stennis International Airport

Bay St. Louis, Mississipí, Estats Units d'Amèrica

latitud: 30-22-04N, longitud: 089-27-17W, altitud: 7 m

Observació

L'informe es va fer fa 32 minuts, a les 15:50 UTC
Vent 6 kt del Est/Nord-Est
Temperatura 29°C
Humitat 52%
Pressió 1020 hPa
Visibilitat: 11.3 km
Cel clar

METAR: KHSA 011550Z 06006KT 7SM CLR 29/18 A3012

Hora: 11:22 (16:22 UTC)


TAF: manca

Observacions i pronòstics meteorològics de més de 4000 aeroports (METAR i TAF).

Les estacions disponibles són els punts grocs i vermells al mapa.

Posi el ratolí al punt desitjat per veure el nom de l'estació.

Feu clic per veure les observacions i els pronòstics meteorològics.

Per canviar el mapa: feu clic els botons verds amb una creu de color negre per apropar; al botó verd amb un guió per allunyar la imatge; o en les fletxes verdes per a mapes adjacents.


METAR-TAF: